createdAt,value
2022-11-24T00:01:36.660Z,97795.00
2022-11-24T00:04:24.148Z,97796.00
2022-11-24T00:07:11.678Z,97797.00
2022-11-24T00:09:59.081Z,97806.00
2022-11-24T00:12:46.502Z,97812.00
2022-11-24T00:15:34.057Z,97811.00
2022-11-24T00:18:21.486Z,97810.00
2022-11-24T00:21:09.547Z,97802.00
2022-11-24T00:23:58.550Z,97812.00
2022-11-24T00:26:45.980Z,97808.00
2022-11-24T00:29:33.420Z,97807.00
2022-11-24T00:32:20.867Z,97815.00
2022-11-24T00:35:09.110Z,97811.00
2022-11-24T00:37:56.541Z,97818.00
2022-11-24T00:40:43.955Z,97822.00
2022-11-24T00:43:31.451Z,97823.00
2022-11-24T00:46:19.915Z,97827.00
2022-11-24T00:49:07.641Z,97825.00
2022-11-24T00:51:55.067Z,97821.00
2022-11-24T00:54:42.497Z,97831.00
2022-11-24T00:57:29.880Z,97826.00
2022-11-24T01:00:18.721Z,97826.00
2022-11-24T01:03:06.100Z,97821.00
2022-11-24T01:05:53.537Z,97830.00
2022-11-24T01:08:42.402Z,97834.00
2022-11-24T01:11:54.671Z,97831.00
2022-11-24T01:14:42.178Z,97830.00
2022-11-24T01:17:29.612Z,97832.00
2022-11-24T01:20:17.713Z,97832.00
2022-11-24T01:23:05.616Z,97838.00
2022-11-24T01:25:53.021Z,97836.00
2022-11-24T01:28:46.298Z,97835.00
2022-11-24T01:31:37.046Z,97841.00
2022-11-24T01:34:24.715Z,97843.00
2022-11-24T01:37:12.341Z,97843.00
2022-11-24T01:39:59.896Z,97839.00
2022-11-24T01:42:53.674Z,97844.00
2022-11-24T01:45:41.631Z,97841.00
2022-11-24T01:48:40.111Z,97848.00
2022-11-24T01:51:32.951Z,97844.00
2022-11-24T01:54:32.969Z,97853.00
2022-11-24T01:57:31.438Z,97855.00
2022-11-24T02:00:19.002Z,97864.00
2022-11-24T02:03:08.497Z,97869.00
2022-11-24T02:06:14.517Z,97865.00
2022-11-24T02:09:23.326Z,97864.00
2022-11-24T02:12:11.677Z,97857.00
2022-11-24T02:14:59.996Z,97863.00
2022-11-24T02:17:47.442Z,97863.00
2022-11-24T02:20:35.270Z,97868.00
2022-11-24T02:23:33.931Z,97865.00
2022-11-24T02:26:36.469Z,97869.00
2022-11-24T02:29:23.995Z,97861.00
2022-11-24T02:32:12.410Z,97865.00
2022-11-24T02:35:06.415Z,97870.00
2022-11-24T02:37:53.891Z,97870.00
2022-11-24T02:40:48.004Z,97871.00
2022-11-24T02:43:47.796Z,97871.00
2022-11-24T02:46:35.263Z,97874.00
2022-11-24T02:49:22.690Z,97874.00
2022-11-24T02:52:10.137Z,97865.00
2022-11-24T02:54:57.536Z,97873.00
2022-11-24T02:57:44.965Z,97867.00
2022-11-24T03:00:32.465Z,97876.00
2022-11-24T03:03:21.360Z,97880.00
2022-11-24T03:06:08.850Z,97889.00
2022-11-24T03:08:56.281Z,97886.00
2022-11-24T03:11:43.839Z,97895.00
2022-11-24T03:14:31.498Z,97893.00
2022-11-24T03:17:19.253Z,97904.00
2022-11-24T03:20:08.081Z,97902.00
2022-11-24T03:22:56.837Z,97904.00
2022-11-24T03:25:44.341Z,97907.00
2022-11-24T03:28:31.803Z,97902.00
2022-11-24T03:31:19.338Z,97908.00
2022-11-24T03:34:06.775Z,97906.00
2022-11-24T03:36:54.431Z,97914.00
2022-11-24T03:39:41.833Z,97920.00
2022-11-24T03:42:29.270Z,97921.00
2022-11-24T03:45:46.875Z,97925.00
2022-11-24T03:48:24.477Z,97928.00
2022-11-24T03:51:12.017Z,97934.00
2022-11-24T03:53:59.463Z,97942.00
2022-11-24T03:56:47.555Z,97941.00
2022-11-24T03:59:35.033Z,97953.00
2022-11-24T04:02:22.528Z,97953.00
2022-11-24T04:05:10.006Z,97956.00
2022-11-24T04:07:57.880Z,97961.00
2022-11-24T04:10:49.249Z,97965.00
2022-11-24T04:13:36.833Z,97965.00
2022-11-24T04:16:24.387Z,97965.00
2022-11-24T04:19:11.937Z,97967.00
2022-11-24T04:21:59.328Z,97967.00
2022-11-24T04:24:46.758Z,97974.00
2022-11-24T04:27:36.697Z,97976.00
2022-11-24T04:30:26.392Z,97986.00
2022-11-24T04:33:13.842Z,97982.00
2022-11-24T04:36:01.295Z,97987.00
2022-11-24T04:39:23.849Z,97988.00
2022-11-24T04:41:56.162Z,97992.00
2022-11-24T04:44:43.566Z,98005.00
2022-11-24T04:47:31.094Z,97997.00
2022-11-24T04:50:18.914Z,98002.00
2022-11-24T04:53:06.289Z,98006.00
2022-11-24T04:55:53.748Z,98005.00
2022-11-24T04:58:41.206Z,98008.00
2022-11-24T05:01:29.155Z,98003.00
2022-11-24T05:04:17.454Z,98007.00
2022-11-24T05:07:05.596Z,98009.00
2022-11-24T05:10:11.712Z,98024.00
2022-11-24T05:12:59.859Z,98017.00
2022-11-24T05:15:47.347Z,98014.00
2022-11-24T05:18:35.301Z,98023.00
2022-11-24T05:21:23.682Z,98021.00
2022-11-24T05:24:11.442Z,98026.00
2022-11-24T05:26:58.918Z,98033.00
2022-11-24T05:29:46.513Z,98038.00
2022-11-24T05:32:33.952Z,98048.00
2022-11-24T05:35:22.213Z,98043.00
2022-11-24T05:38:09.720Z,98042.00
2022-11-24T05:41:06.781Z,98045.00
2022-11-24T05:43:54.213Z,98047.00
2022-11-24T05:46:41.671Z,98052.00
2022-11-24T05:49:29.182Z,98052.00
2022-11-24T05:52:16.926Z,98042.00
2022-11-24T05:55:07.401Z,98047.00
2022-11-24T05:58:07.534Z,98051.00
2022-11-24T06:00:55.042Z,98049.00
2022-11-24T06:03:42.504Z,98055.00
2022-11-24T06:06:29.976Z,98060.00
2022-11-24T06:09:17.686Z,98060.00
2022-11-24T06:12:11.012Z,98063.00
2022-11-24T06:14:58.475Z,98063.00
2022-11-24T06:17:55.071Z,98068.00
2022-11-24T06:20:53.177Z,98066.00
2022-11-24T06:23:50.476Z,98080.00
2022-11-24T06:26:37.873Z,98083.00
2022-11-24T06:29:25.331Z,98077.00
2022-11-24T06:32:12.796Z,98080.00
2022-11-24T06:35:00.236Z,98096.00
2022-11-24T06:37:47.622Z,98094.00
2022-11-24T06:40:35.115Z,98096.00
2022-11-24T06:43:23.337Z,98103.00
2022-11-24T06:46:12.424Z,98104.00
2022-11-24T06:49:00.699Z,98108.00
2022-11-24T06:51:48.281Z,98101.00
2022-11-24T06:54:36.081Z,98109.00
2022-11-24T06:57:23.784Z,98107.00
2022-11-24T07:00:12.070Z,98111.00
2022-11-24T07:03:01.288Z,98124.00
2022-11-24T07:05:49.136Z,98123.00
2022-11-24T07:08:36.721Z,98116.00
2022-11-24T07:11:26.178Z,98118.00
2022-11-24T07:14:13.636Z,98121.00
2022-11-24T07:17:02.746Z,98131.00
2022-11-24T07:19:50.239Z,98133.00
2022-11-24T07:22:37.669Z,98138.00
2022-11-24T07:25:26.505Z,98131.00
2022-11-24T07:28:13.972Z,98137.00
2022-11-24T07:31:07.550Z,98151.00
2022-11-24T07:33:56.281Z,98158.00
2022-11-24T07:36:45.175Z,98167.00
2022-11-24T07:39:32.813Z,98168.00
2022-11-24T07:42:20.233Z,98167.00
2022-11-24T07:45:08.417Z,98160.00
2022-11-24T07:47:55.961Z,98173.00
2022-11-24T07:50:43.406Z,98168.00
2022-11-24T07:53:32.161Z,98174.00
2022-11-24T07:56:19.647Z,98172.00
2022-11-24T07:59:07.301Z,98177.00
2022-11-24T08:01:54.789Z,98180.00
2022-11-24T08:04:42.221Z,98179.00
2022-11-24T08:07:29.789Z,98186.00
2022-11-24T08:10:18.012Z,98180.00
2022-11-24T08:13:05.477Z,98186.00
2022-11-24T08:15:52.886Z,98181.00
2022-11-24T08:18:41.618Z,98185.00
2022-11-24T08:21:29.152Z,98194.00
2022-11-24T08:24:17.218Z,98186.00
2022-11-24T08:27:04.891Z,98202.00
2022-11-24T08:29:52.357Z,98190.00
2022-11-24T08:32:39.767Z,98185.00
2022-11-24T08:35:28.702Z,98195.00
2022-11-24T08:38:17.437Z,98194.00
2022-11-24T08:41:11.786Z,98200.00
2022-11-24T08:43:59.331Z,98195.00
2022-11-24T08:46:46.839Z,98199.00
2022-11-24T08:49:34.321Z,98198.00
2022-11-24T08:52:21.712Z,98200.00
2022-11-24T08:55:09.692Z,98205.00
2022-11-24T08:57:57.567Z,98213.00
2022-11-24T09:00:45.110Z,98208.00
2022-11-24T09:03:32.598Z,98209.00
2022-11-24T09:06:25.566Z,98206.00
2022-11-24T09:09:13.331Z,98219.00
2022-11-24T09:12:00.791Z,98217.00
2022-11-24T09:14:48.277Z,98209.00
2022-11-24T09:17:36.642Z,98210.00
2022-11-24T09:20:24.148Z,98210.00
2022-11-24T09:23:11.657Z,98209.00
2022-11-24T09:26:09.218Z,98208.00
2022-11-24T09:28:59.142Z,98210.00
2022-11-24T09:31:46.537Z,98203.00
2022-11-24T09:34:34.092Z,98204.00
2022-11-24T09:37:21.647Z,98207.00
2022-11-24T09:40:16.154Z,98200.00
2022-11-24T09:43:14.912Z,98205.00
2022-11-24T09:46:13.554Z,98194.00
2022-11-24T09:49:04.957Z,98205.00
2022-11-24T09:51:56.436Z,98196.00
2022-11-24T09:54:59.761Z,98204.00
2022-11-24T09:58:12.910Z,98211.00
2022-11-24T10:01:00.530Z,98209.00
2022-11-24T10:03:52.017Z,98211.00
2022-11-24T10:07:17.788Z,98210.00
2022-11-24T10:10:28.823Z,98218.00
2022-11-24T10:13:47.075Z,98219.00
2022-11-24T10:16:48.373Z,98210.00
2022-11-24T10:20:13.974Z,98208.00
2022-11-24T10:23:51.786Z,98218.00
2022-11-24T10:26:49.032Z,98217.00
2022-11-24T10:29:41.810Z,98221.00
2022-11-24T10:32:38.043Z,98219.00
2022-11-24T10:35:54.042Z,98219.00
2022-11-24T10:39:03.456Z,98221.00
2022-11-24T10:42:11.317Z,98218.00
2022-11-24T10:45:22.456Z,98228.00
2022-11-24T10:48:29.458Z,98229.00
2022-11-24T10:51:50.765Z,98224.00
2022-11-24T10:55:02.264Z,98224.00
2022-11-24T10:57:49.856Z,98230.00
2022-11-24T11:00:37.616Z,98228.00
2022-11-24T11:03:31.752Z,98228.00
2022-11-24T11:06:31.764Z,98234.00
2022-11-24T11:09:22.499Z,98230.00
2022-11-24T11:15:32.019Z,98219.00
2022-11-24T11:18:22.134Z,98217.00
2022-11-24T11:21:39.322Z,98226.00
2022-11-24T11:24:28.779Z,98235.00
2022-11-24T11:27:25.310Z,98226.00
2022-11-24T11:36:49.231Z,98218.00
2022-11-24T11:39:52.759Z,98218.00
2022-11-24T11:43:06.216Z,98225.00
2022-11-24T11:46:12.145Z,98224.00
2022-11-24T11:49:00.432Z,98222.00
2022-11-24T11:52:11.967Z,98223.00
2022-11-24T11:55:05.586Z,98215.00
2022-11-24T11:58:18.826Z,98213.00
2022-11-24T12:01:53.222Z,98218.00
2022-11-24T12:04:53.856Z,98213.00
2022-11-24T12:08:20.494Z,98209.00
2022-11-24T12:11:38.407Z,98207.00
2022-11-24T12:15:10.741Z,98209.00
2022-11-24T12:18:04.441Z,98199.00
2022-11-24T12:21:36.277Z,98198.00
2022-11-24T12:24:45.276Z,98201.00
2022-11-24T12:28:03.706Z,98197.00
2022-11-24T12:31:07.628Z,98194.00
2022-11-24T12:34:15.241Z,98190.00
2022-11-24T12:37:17.725Z,98194.00
2022-11-24T12:40:17.537Z,98199.00
2022-11-24T12:43:50.801Z,98195.00
2022-11-24T12:46:38.196Z,98180.00
2022-11-24T12:49:57.796Z,98187.00
2022-11-24T12:52:57.228Z,98192.00
2022-11-24T12:55:47.156Z,98191.00
2022-11-24T12:58:55.711Z,98185.00
2022-11-24T13:01:59.164Z,98176.00
2022-11-24T13:05:11.941Z,98182.00
2022-11-24T13:08:05.211Z,98174.00
2022-11-24T13:10:57.609Z,98177.00
2022-11-24T13:13:59.650Z,98187.00
2022-11-24T13:17:41.990Z,98182.00
2022-11-24T13:20:40.530Z,98181.00
2022-11-24T13:23:29.322Z,98179.00
2022-11-24T13:26:49.435Z,98181.00
2022-11-24T13:29:38.866Z,98194.00
2022-11-24T13:32:32.460Z,98199.00
2022-11-24T13:35:19.991Z,98205.00
2022-11-24T13:38:45.702Z,98211.00
2022-11-24T13:41:36.150Z,98215.00
2022-11-24T13:44:26.706Z,98224.00
2022-11-24T13:47:47.058Z,98225.00
2022-11-24T13:50:58.725Z,98208.00
2022-11-24T13:53:49.845Z,98213.00
2022-11-24T13:56:37.596Z,98221.00
2022-11-24T13:59:35.427Z,98231.00
2022-11-24T14:02:24.446Z,98237.00
2022-11-24T14:05:20.778Z,98240.00
2022-11-24T14:08:21.913Z,98238.00
2022-11-24T14:11:17.410Z,98244.00
2022-11-24T14:14:20.880Z,98215.00
2022-11-24T14:17:13.282Z,98224.00
2022-11-24T14:20:22.171Z,98228.00
2022-11-24T14:23:10.866Z,98227.00
2022-11-24T14:25:58.361Z,98226.00
2022-11-24T14:28:46.268Z,98223.00
2022-11-24T14:31:34.309Z,98245.00
2022-11-24T14:34:24.575Z,98257.00
2022-11-24T14:37:12.022Z,98271.00
2022-11-24T14:39:59.439Z,98289.00
2022-11-24T14:42:51.569Z,98283.00
2022-11-24T14:45:48.575Z,98287.00
2022-11-24T14:48:45.991Z,98300.00
2022-11-24T14:51:37.361Z,98310.00
2022-11-24T14:54:25.532Z,98312.00
2022-11-24T14:57:34.111Z,98325.00
2022-11-24T15:00:32.176Z,98317.00
2022-11-24T15:03:20.082Z,98316.00
2022-11-24T15:06:19.890Z,98324.00
2022-11-24T15:09:22.888Z,98326.00
2022-11-24T15:12:34.494Z,98335.00
2022-11-24T15:15:30.673Z,98337.00
2022-11-24T15:18:35.376Z,98350.00
2022-11-24T15:21:35.266Z,98349.00
2022-11-24T15:24:22.722Z,98352.00
2022-11-24T15:27:10.152Z,98357.00
2022-11-24T15:29:57.712Z,98363.00
2022-11-24T15:32:57.363Z,98367.00
2022-11-24T15:35:45.862Z,98377.00
2022-11-24T15:38:33.717Z,98376.00
2022-11-24T15:41:28.706Z,98385.00
2022-11-24T15:44:16.101Z,98386.00
2022-11-24T15:47:03.624Z,98384.00
2022-11-24T15:49:51.078Z,98385.00
2022-11-24T15:52:39.204Z,98386.00
2022-11-24T15:55:26.764Z,98391.00
2022-11-24T15:58:15.696Z,98395.00
2022-11-24T16:01:03.212Z,98398.00
2022-11-24T16:03:50.696Z,98404.00
2022-11-24T16:06:38.187Z,98403.00
2022-11-24T16:09:25.591Z,98409.00
2022-11-24T16:12:13.077Z,98406.00
2022-11-24T16:15:00.444Z,98409.00
2022-11-24T16:17:48.403Z,98411.00
2022-11-24T16:20:36.253Z,98404.00
2022-11-24T16:23:23.842Z,98405.00
2022-11-24T16:26:11.283Z,98408.00
2022-11-24T16:28:58.712Z,98413.00
2022-11-24T16:31:47.339Z,98418.00
2022-11-24T16:34:35.015Z,98410.00
2022-11-24T16:37:23.237Z,98420.00
2022-11-24T16:40:11.376Z,98420.00
2022-11-24T16:42:58.958Z,98420.00
2022-11-24T16:45:46.605Z,98413.00
2022-11-24T16:48:37.996Z,98414.00
2022-11-24T16:51:29.916Z,98414.00
2022-11-24T16:54:20.632Z,98422.00
2022-11-24T16:57:14.532Z,98428.00
2022-11-24T17:00:03.101Z,98424.00
2022-11-24T17:02:50.587Z,98430.00
2022-11-24T17:05:38.112Z,98429.00
2022-11-24T17:08:25.950Z,98435.00
2022-11-24T17:11:18.007Z,98441.00
2022-11-24T17:14:06.059Z,98441.00
2022-11-24T17:16:53.710Z,98448.00
2022-11-24T17:19:41.320Z,98445.00
2022-11-24T17:22:28.857Z,98444.00
2022-11-24T17:25:16.632Z,98445.00
2022-11-24T17:28:04.292Z,98456.00
2022-11-24T17:30:51.697Z,98456.00
2022-11-24T17:33:39.135Z,98467.00
2022-11-24T17:36:28.601Z,98461.00
2022-11-24T17:39:19.146Z,98462.00
2022-11-24T17:42:10.831Z,98461.00
2022-11-24T17:44:58.376Z,98472.00
2022-11-24T17:47:45.875Z,98478.00
2022-11-24T17:50:33.321Z,98480.00
2022-11-24T17:53:20.781Z,98482.00
2022-11-24T17:56:13.331Z,98474.00
2022-11-24T17:59:01.560Z,98483.00
2022-11-24T18:01:49.031Z,98482.00
2022-11-24T18:04:36.840Z,98485.00
2022-11-24T18:07:25.388Z,98484.00
2022-11-24T18:10:12.938Z,98494.00
2022-11-24T18:13:00.432Z,98494.00
2022-11-24T18:15:47.942Z,98499.00
2022-11-24T18:18:40.144Z,98499.00
2022-11-24T18:21:28.776Z,98507.00
2022-11-24T18:24:19.803Z,98511.00
2022-11-24T18:27:11.404Z,98512.00
2022-11-24T18:29:58.966Z,98520.00
2022-11-24T18:32:46.404Z,98521.00
2022-11-24T18:35:33.841Z,98531.00
2022-11-24T18:38:21.332Z,98526.00
2022-11-24T18:41:09.812Z,98528.00
2022-11-24T18:43:57.346Z,98540.00
2022-11-24T18:46:44.877Z,98536.00
2022-11-24T18:49:32.357Z,98539.00
2022-11-24T18:52:19.926Z,98537.00
2022-11-24T18:55:07.907Z,98545.00
2022-11-24T18:57:55.397Z,98542.00
2022-11-24T19:00:42.856Z,98534.00
2022-11-24T19:03:30.437Z,98531.00
2022-11-24T19:06:32.366Z,98538.00
2022-11-24T19:09:22.649Z,98530.00
2022-11-24T19:12:10.986Z,98545.00
2022-11-24T19:14:58.411Z,98551.00
2022-11-24T19:17:47.409Z,98550.00
2022-11-24T19:20:35.572Z,98546.00
2022-11-24T19:23:23.027Z,98552.00
2022-11-24T19:26:10.578Z,98549.00
2022-11-24T19:28:58.126Z,98555.00
2022-11-24T19:31:45.700Z,98555.00
2022-11-24T19:34:33.649Z,98565.00
2022-11-24T19:37:23.596Z,98571.00
2022-11-24T19:40:11.847Z,98573.00
2022-11-24T19:42:59.321Z,98580.00
2022-11-24T19:45:46.829Z,98584.00
2022-11-24T19:48:38.371Z,98586.00
2022-11-24T19:51:43.961Z,98588.00
2022-11-24T19:54:33.364Z,98590.00
2022-11-24T19:57:21.022Z,98588.00
2022-11-24T20:00:09.786Z,98592.00
2022-11-24T20:02:57.340Z,98599.00
2022-11-24T20:05:55.078Z,98599.00
2022-11-24T20:08:43.642Z,98606.00
2022-11-24T20:11:31.142Z,98603.00
2022-11-24T20:14:19.645Z,98608.00
2022-11-24T20:17:07.271Z,98602.00
2022-11-24T20:19:54.662Z,98604.00
2022-11-24T20:22:42.544Z,98598.00
2022-11-24T20:25:30.037Z,98597.00
2022-11-24T20:28:17.533Z,98610.00
2022-11-24T20:31:11.354Z,98604.00
2022-11-24T20:34:02.606Z,98613.00
2022-11-24T20:36:52.846Z,98607.00
2022-11-24T20:39:40.767Z,98614.00
2022-11-24T20:42:28.423Z,98613.00
2022-11-24T20:45:15.942Z,98612.00
2022-11-24T20:48:03.586Z,98614.00
2022-11-24T20:50:51.620Z,98621.00
2022-11-24T20:53:40.221Z,98613.00
2022-11-24T20:56:32.176Z,98629.00
2022-11-24T20:59:24.590Z,98616.00
2022-11-24T21:02:12.173Z,98624.00
2022-11-24T21:04:59.747Z,98622.00
2022-11-24T21:07:47.274Z,98623.00
2022-11-24T21:10:34.783Z,98617.00
2022-11-24T21:13:23.487Z,98617.00
2022-11-24T21:16:23.534Z,98619.00
2022-11-24T21:19:14.872Z,98630.00
2022-11-24T21:22:02.458Z,98634.00
2022-11-24T21:24:49.912Z,98631.00
2022-11-24T21:27:37.458Z,98630.00
2022-11-24T21:30:25.796Z,98643.00
2022-11-24T21:33:13.401Z,98650.00
2022-11-24T21:36:05.721Z,98645.00
2022-11-24T21:38:59.257Z,98644.00
2022-11-24T21:41:47.707Z,98639.00
2022-11-24T21:44:35.462Z,98645.00
2022-11-24T21:47:23.191Z,98647.00
2022-11-24T21:50:11.372Z,98649.00
2022-11-24T21:53:03.297Z,98650.00
2022-11-24T21:55:59.578Z,98650.00
2022-11-24T21:58:57.402Z,98648.00
2022-11-24T22:01:44.878Z,98655.00
2022-11-24T22:04:32.485Z,98654.00
2022-11-24T22:07:20.245Z,98655.00
2022-11-24T22:10:08.687Z,98651.00
2022-11-24T22:12:56.178Z,98658.00
2022-11-24T22:15:44.261Z,98664.00
2022-11-24T22:18:40.981Z,98671.00
2022-11-24T22:21:33.275Z,98669.00
2022-11-24T22:24:25.851Z,98675.00
2022-11-24T22:27:14.810Z,98675.00
2022-11-24T22:30:05.038Z,98665.00
2022-11-24T22:32:54.527Z,98664.00
2022-11-24T22:35:41.976Z,98665.00
2022-11-24T22:38:30.791Z,98658.00
2022-11-24T22:41:18.987Z,98662.00
2022-11-24T22:44:06.766Z,98665.00
2022-11-24T22:46:54.266Z,98672.00
2022-11-24T22:49:41.771Z,98667.00
2022-11-24T22:52:29.317Z,98671.00
2022-11-24T22:55:16.841Z,98665.00
2022-11-24T22:58:04.272Z,98671.00
2022-11-24T23:00:51.777Z,98664.00
2022-11-24T23:03:41.071Z,98656.00
2022-11-24T23:06:31.550Z,98656.00
2022-11-24T23:09:20.396Z,98662.00
2022-11-24T23:12:07.977Z,98671.00
2022-11-24T23:14:55.436Z,98681.00
2022-11-24T23:17:42.862Z,98678.00
2022-11-24T23:20:30.331Z,98674.00
2022-11-24T23:23:17.842Z,98670.00
2022-11-24T23:26:13.002Z,98663.00
2022-11-24T23:29:00.891Z,98662.00
2022-11-24T23:31:48.423Z,98665.00
2022-11-24T23:34:36.065Z,98650.00
2022-11-24T23:37:30.223Z,98660.00
2022-11-24T23:40:31.106Z,98659.00
2022-11-24T23:43:18.607Z,98663.00
2022-11-24T23:46:10.234Z,98664.00
2022-11-24T23:48:57.825Z,98659.00
2022-11-24T23:51:45.448Z,98647.00
2022-11-24T23:54:33.157Z,98657.00
2022-11-24T23:57:20.948Z,98644.00
